Time;durP1;ratioP1;P1;durP2;ratioP2;P2;SDS_P1;SDS_P2;PMS_P1;PMS_P2;Temp;Humidity;BMP_temperature;BMP_pressure;BME280_temperature;BME280_humidity;BME280_pressure;Samples;Min_cycle;Max_cycle;Signal;HPM_P1;HPM_P2
2021/01/29 00:01:36;;;;;;;0.00;0.00;;;;;;;;;;5024291;28;20218;-61
2021/01/29 00:04:04;;;;;;;0.10;0.10;;;;;;;;;;5021685;28;20201;-64
2021/01/29 00:06:30;;;;;;;0.33;0.33;;;;;;;;;;5024901;28;20215;-62
2021/01/29 00:08:59;;;;;;;0.10;0.10;;;;;;;;;;5018608;28;20200;-62
2021/01/29 00:11:26;;;;;;;0.00;0.00;;;;;;;;;;5022029;28;20331;-62
2021/01/29 00:13:52;;;;;;;0.07;0.07;;;;;;;;;;5024765;28;20472;-64
2021/01/29 00:16:19;;;;;;;0.00;0.00;;;;;;;;;;5017717;28;20195;-62
2021/01/29 00:18:46;;;;;;;0.00;0.00;;;;;;;;;;5016419;28;20188;-62
2021/01/29 00:21:12;;;;;;;0.00;0.00;;;;;;;;;;5021778;28;20231;-62
2021/01/29 00:23:39;;;;;;;0.00;0.00;;;;;;;;;;5021239;28;20200;-63
2021/01/29 00:26:06;;;;;;;0.10;0.10;;;;;;;;;;5019994;28;20676;-62
2021/01/29 00:28:32;;;;;;;0.10;0.10;;;;;;;;;;5023394;28;20381;-62
2021/01/29 00:30:59;;;;;;;0.17;0.17;;;;;;;;;;5015279;28;20260;-63
2021/01/29 00:33:27;;;;;;;0.20;0.20;;;;;;;;;;5017733;28;20676;-63
2021/01/29 00:35:54;;;;;;;0.20;0.20;;;;;;;;;;5021728;28;20248;-64
2021/01/29 00:38:20;;;;;;;0.10;0.10;;;;;;;;;;5027886;28;20191;-63
2021/01/29 00:40:47;;;;;;;0.10;0.10;;;;;;;;;;5017642;28;20615;-63
2021/01/29 00:43:15;;;;;;;0.10;0.10;;;;;;;;;;5015001;28;20190;-62
2021/01/29 00:45:42;;;;;;;0.10;0.10;;;;;;;;;;5020256;28;20195;-63
2021/01/29 00:48:09;;;;;;;0.10;0.10;;;;;;;;;;5018557;28;20192;-62
2021/01/29 00:50:38;;;;;;;0.10;0.10;;;;;;;;;;5022643;28;20179;-62
2021/01/29 00:53:05;;;;;;;0.10;0.10;;;;;;;;;;5019465;28;20195;-62
2021/01/29 00:55:32;;;;;;;0.10;0.10;;;;;;;;;;5013997;28;20179;-63
2021/01/29 00:57:58;;;;;;;0.40;0.40;;;;;;;;;;5020950;28;20184;-62
2021/01/29 01:00:25;;;;;;;0.10;0.10;;;;;;;;;;5014369;28;20241;-61
2021/01/29 01:02:51;;;;;;;0.20;0.20;;;;;;;;;;5017454;28;20695;-61
2021/01/29 01:05:19;;;;;;;0.10;0.10;;;;;;;;;;5019028;28;20211;-61
2021/01/29 01:07:46;;;;;;;0.20;0.20;;;;;;;;;;5023507;28;20607;-62
2021/01/29 01:10:12;;;;;;;0.10;0.10;;;;;;;;;;5020520;28;20191;-63
2021/01/29 01:12:39;;;;;;;0.20;0.20;;;;;;;;;;5026373;28;20669;-62
2021/01/29 01:15:11;;;;;;;0.00;0.00;;;;;;;;;;5019567;28;20694;-65
2021/01/29 01:17:37;;;;;;;0.00;0.00;;;;;;;;;;5016636;28;20179;-63
2021/01/29 01:20:08;;;;;;;0.00;0.00;;;;;;;;;;5010075;28;20219;-62
2021/01/29 01:22:35;;;;;;;1.80;1.60;;;;;;;;;;5018649;28;20192;-62
2021/01/29 01:25:01;;;;;;;0.00;0.00;;;;;;;;;;5012516;28;20192;-62
2021/01/29 01:27:29;;;;;;;0.47;0.47;;;;;;;;;;5029109;28;20602;-63
2021/01/29 01:29:55;;;;;;;0.00;0.00;;;;;;;;;;5019607;28;20642;-62
2021/01/29 01:32:22;;;;;;;0.10;0.10;;;;;;;;;;5019893;28;20281;-62
2021/01/29 01:34:48;;;;;;;0.10;0.10;;;;;;;;;;5014786;28;20282;-65
2021/01/29 01:37:16;;;;;;;0.10;0.10;;;;;;;;;;5021908;28;20183;-62
2021/01/29 01:39:43;;;;;;;0.03;0.03;;;;;;;;;;5019345;28;20337;-63
2021/01/29 01:42:10;;;;;;;0.00;0.00;;;;;;;;;;5022537;28;20668;-63
2021/01/29 01:44:41;;;;;;;0.00;0.00;;;;;;;;;;5017846;28;20473;-62
2021/01/29 01:47:23;;;;;;;0.23;0.10;;;;;;;;;;5022977;28;20189;-64
2021/01/29 01:49:51;;;;;;;0.00;0.00;;;;;;;;;;5019258;28;20207;-64
2021/01/29 01:52:37;;;;;;;0.00;0.00;;;;;;;;;;5017026;28;20191;-63
2021/01/29 01:55:12;;;;;;;0.10;0.10;;;;;;;;;;5021325;28;20661;-63
2021/01/29 01:57:40;;;;;;;0.10;0.10;;;;;;;;;;5019296;28;20555;-64
2021/01/29 02:00:08;;;;;;;0.10;0.10;;;;;;;;;;5014739;28;20254;-61
2021/01/29 02:02:37;;;;;;;0.20;0.20;;;;;;;;;;5016785;28;20187;-62
2021/01/29 02:05:06;;;;;;;0.10;0.10;;;;;;;;;;5015926;28;20191;-62
2021/01/29 02:07:44;;;;;;;0.83;0.47;;;;;;;;;;5015083;28;20195;-65
2021/01/29 02:10:11;;;;;;;0.00;0.00;;;;;;;;;;5020221;28;20187;-62
2021/01/29 02:12:38;;;;;;;0.03;0.03;;;;;;;;;;5015764;28;20190;-63
2021/01/29 02:15:08;;;;;;;0.00;0.00;;;;;;;;;;5016077;28;20555;-63
2021/01/29 02:17:43;;;;;;;0.00;0.00;;;;;;;;;;5018205;28;20999;-62
2021/01/29 02:20:28;;;;;;;0.20;0.20;;;;;;;;;;5014817;28;20235;-61
2021/01/29 02:23:13;;;;;;;0.10;0.10;;;;;;;;;;5008973;28;20178;-61
2021/01/29 02:25:59;;;;;;;0.10;0.10;;;;;;;;;;5016355;28;20680;-61
2021/01/29 02:28:32;;;;;;;0.10;0.10;;;;;;;;;;5014610;28;20214;-62
2021/01/29 02:31:18;;;;;;;0.00;0.00;;;;;;;;;;5015798;28;20188;-64
2021/01/29 02:34:12;;;;;;;0.10;0.10;;;;;;;;;;5015416;28;20673;-62
2021/01/29 02:36:45;;;;;;;0.00;0.00;;;;;;;;;;5019412;28;20198;-63
2021/01/29 02:39:24;;;;;;;0.10;0.10;;;;;;;;;;5015286;28;20199;-61
2021/01/29 02:42:03;;;;;;;0.10;0.10;;;;;;;;;;5012694;28;20186;-61
2021/01/29 02:44:41;;;;;;;0.00;0.00;;;;;;;;;;5019407;28;20194;-62
2021/01/29 02:47:28;;;;;;;0.10;0.10;;;;;;;;;;5011777;28;20630;-62
2021/01/29 02:50:13;;;;;;;0.20;0.20;;;;;;;;;;5014444;28;20203;-61
2021/01/29 02:52:44;;;;;;;3.97;1.80;;;;;;;;;;5017989;28;20265;-61
2021/01/29 02:55:33;;;;;;;0.17;0.17;;;;;;;;;;5019147;28;20334;-62
2021/01/29 02:58:11;;;;;;;0.00;0.00;;;;;;;;;;5015620;28;20190;-61
2021/01/29 03:00:45;;;;;;;0.00;0.00;;;;;;;;;;5018204;28;20286;-61
2021/01/29 03:03:11;;;;;;;0.00;0.00;;;;;;;;;;5017438;28;20739;-61
2021/01/29 03:05:54;;;;;;;0.30;0.30;;;;;;;;;;5019229;28;20194;-63
2021/01/29 03:08:41;;;;;;;0.80;0.80;;;;;;;;;;5021411;28;20548;-61
2021/01/29 03:11:17;;;;;;;0.00;0.00;;;;;;;;;;5017982;28;20183;-62
2021/01/29 03:13:44;;;;;;;0.00;0.00;;;;;;;;;;5019286;28;20225;-62
2021/01/29 03:16:31;;;;;;;0.20;0.20;;;;;;;;;;5016894;28;20180;-60
2021/01/29 03:19:08;;;;;;;0.10;0.10;;;;;;;;;;5003829;28;20489;-61
2021/01/29 03:21:37;;;;;;;0.00;0.00;;;;;;;;;;5019392;28;20577;-60
2021/01/29 03:24:10;;;;;;;0.00;0.00;;;;;;;;;;5022330;28;20574;-62
2021/01/29 03:26:43;;;;;;;0.10;0.10;;;;;;;;;;5017475;28;20191;-60
2021/01/29 03:29:14;;;;;;;0.10;0.10;;;;;;;;;;5018762;28;20189;-60
2021/01/29 03:31:44;;;;;;;0.10;0.10;;;;;;;;;;5019948;28;20538;-61
2021/01/29 03:34:13;;;;;;;0.20;0.20;;;;;;;;;;5020954;28;20653;-62
2021/01/29 03:36:47;;;;;;;0.00;0.00;;;;;;;;;;5021089;28;20268;-61
2021/01/29 03:39:21;;;;;;;0.10;0.10;;;;;;;;;;5017797;28;20184;-62
2021/01/29 03:41:51;;;;;;;0.10;0.10;;;;;;;;;;5018778;28;20198;-59
2021/01/29 03:44:21;;;;;;;0.00;0.00;;;;;;;;;;5020485;28;20191;-60
2021/01/29 03:46:47;;;;;;;0.00;0.00;;;;;;;;;;5021216;28;20181;-60
2021/01/29 03:49:14;;;;;;;0.00;0.00;;;;;;;;;;5021738;28;20181;-61
2021/01/29 03:51:46;;;;;;;0.10;0.10;;;;;;;;;;5024448;28;20274;-60
2021/01/29 03:54:13;;;;;;;0.00;0.00;;;;;;;;;;5018601;28;20303;-62
2021/01/29 03:56:58;;;;;;;0.43;0.43;;;;;;;;;;5019617;28;20281;-59
2021/01/29 03:59:29;;;;;;;0.10;0.10;;;;;;;;;;5017430;28;20234;-60
2021/01/29 04:02:00;;;;;;;0.20;0.20;;;;;;;;;;5022343;28;20278;-60
2021/01/29 04:04:31;;;;;;;0.10;0.10;;;;;;;;;;5020235;28;20209;-61
2021/01/29 04:07:02;;;;;;;0.10;0.10;;;;;;;;;;5018805;28;20205;-60
2021/01/29 04:09:31;;;;;;;0.10;0.10;;;;;;;;;;5012998;28;20216;-62
2021/01/29 04:12:00;;;;;;;0.10;0.10;;;;;;;;;;5019468;28;20192;-60
2021/01/29 04:14:34;;;;;;;0.10;0.10;;;;;;;;;;5019387;28;20188;-60
2021/01/29 04:17:03;;;;;;;0.10;0.10;;;;;;;;;;5026034;28;20194;-61
2021/01/29 04:19:30;;;;;;;0.10;0.10;;;;;;;;;;5028270;28;20245;-61
2021/01/29 04:21:57;;;;;;;0.10;0.10;;;;;;;;;;5018461;28;20180;-59
2021/01/29 04:24:30;;;;;;;0.00;0.00;;;;;;;;;;5019271;28;20228;-62
2021/01/29 04:27:00;;;;;;;0.00;0.00;;;;;;;;;;5021001;28;20189;-60
2021/01/29 04:29:47;;;;;;;0.10;0.10;;;;;;;;;;5021775;28;21014;-61
2021/01/29 04:32:16;;;;;;;0.47;0.47;;;;;;;;;;5021862;28;20195;-62
2021/01/29 04:34:45;;;;;;;0.10;0.10;;;;;;;;;;5018684;28;20187;-60
2021/01/29 04:37:16;;;;;;;0.10;0.10;;;;;;;;;;5020489;28;20180;-61
2021/01/29 04:39:45;;;;;;;2.17;1.70;;;;;;;;;;5021749;28;20251;-61
2021/01/29 04:42:17;;;;;;;0.10;0.10;;;;;;;;;;5020720;28;20188;-61
2021/01/29 04:45:02;;;;;;;0.10;0.10;;;;;;;;;;5023126;28;20204;-61
2021/01/29 04:47:35;;;;;;;0.10;0.10;;;;;;;;;;5020904;28;20279;-62
2021/01/29 04:50:06;;;;;;;0.10;0.10;;;;;;;;;;5017481;28;20201;-60
2021/01/29 04:52:48;;;;;;;0.50;0.50;;;;;;;;;;5017433;28;20199;-61
2021/01/29 04:55:21;;;;;;;0.00;0.00;;;;;;;;;;5018049;28;20186;-61
2021/01/29 04:57:51;;;;;;;0.10;0.10;;;;;;;;;;5017553;28;20585;-60
2021/01/29 05:00:37;;;;;;;0.30;0.30;;;;;;;;;;5016739;28;20610;-60
2021/01/29 05:03:34;;;;;;;0.10;0.10;;;;;;;;;;5015793;28;20196;-61
2021/01/29 05:06:19;;;;;;;0.10;0.10;;;;;;;;;;5018844;28;20274;-60
2021/01/29 05:08:54;;;;;;;0.10;0.10;;;;;;;;;;5018156;28;20543;-60
2021/01/29 05:11:21;;;;;;;0.10;0.10;;;;;;;;;;5020980;28;20621;-59
2021/01/29 05:13:55;;;;;;;0.10;0.10;;;;;;;;;;5020482;28;20196;-61
2021/01/29 05:16:24;;;;;;;0.00;0.00;;;;;;;;;;5020641;28;20192;-59
2021/01/29 05:18:51;;;;;;;0.10;0.10;;;;;;;;;;5022271;28;20594;-60
2021/01/29 05:21:20;;;;;;;0.10;0.10;;;;;;;;;;5021086;28;20229;-61
2021/01/29 05:23:47;;;;;;;0.20;0.20;;;;;;;;;;5021096;28;20612;-61
2021/01/29 05:26:28;;;;;;;0.00;0.00;;;;;;;;;;5019361;28;20524;-62
2021/01/29 05:29:02;;;;;;;0.30;0.30;;;;;;;;;;5017439;28;20671;-61
2021/01/29 05:37:36;;;;;;;0.10;0.10;;;;;;;;;;5041944;28;20187;-59
2021/01/29 05:43:15;;;;;;;0.20;0.20;;;;;;;;;;5040746;28;20206;-59
2021/01/29 05:49:05;;;;;;;0.10;0.10;;;;;;;;;;5037723;28;20596;-59
2021/01/29 05:54:54;;;;;;;0.10;0.10;;;;;;;;;;5037082;28;20693;-59
2021/01/29 06:00:30;;;;;;;0.10;0.10;;;;;;;;;;5030546;28;20619;-59
2021/01/29 06:06:29;;;;;;;0.40;0.40;;;;;;;;;;5036502;28;20551;-59
2021/01/29 06:12:05;;;;;;;0.10;0.10;;;;;;;;;;5036714;28;20247;-59
2021/01/29 06:17:35;;;;;;;0.10;0.10;;;;;;;;;;5036363;28;20756;-59
2021/01/29 14:56:15;;;;;;;0.13;0.13;;;;;;;;;;6089279;23;20608;-60
2021/01/29 15:02:37;;;;;;;0.00;0.00;;;;;;;;;;6037791;23;20202;-60
2021/01/29 15:32:33;;;;;;;;;;;;;;;;;;;;;
2021/01/29 15:42:11;;;;;;;;;;;;;;;;;;;;;
2021/01/29 15:54:22;;;;;;;0.00;0.00;;;;;;;;;;6115977;23;20196;-60
2021/01/29 15:57:25;;;;;;;0.77;0.40;;;;;;;;;;6059665;23;20180;-61
2021/01/29 16:09:57;;;;;;;0.00;0.00;;;;;;;;;;6086092;23;20617;-61
2021/01/29 16:34:30;;;;;;;0.00;0.00;;;;;;;;;;5998336;23;20632;-60
2021/01/29 16:49:23;;;;;;;0.10;0.10;;;;;;;;;;6061051;23;20184;-61
2021/01/29 17:03:37;;;;;;;;;;;;;;;;;;;;;
2021/01/29 17:39:54;;;;;;;0.10;0.10;;;;;;;;;;6055436;23;20214;-61
2021/01/29 18:40:41;;;;;;;0.10;0.10;;;;;;;;;;6109027;23;20251;-61
2021/01/29 18:46:28;;;;;;;0.00;0.00;;;;;;;;;;6113965;23;20253;-60
2021/01/29 18:58:08;;;;;;;0.13;0.13;;;;;;;;;;6084895;23;21016;-60
2021/01/29 19:21:25;;;;;;;0.00;0.00;;;;;;;;;;6085023;23;20259;-60
2021/01/29 19:27:14;;;;;;;0.00;0.00;;;;;;;;;;6085558;23;20168;-61
2021/01/29 19:50:38;;;;;;;0.27;0.27;;;;;;;;;;6081403;23;20189;-61
2021/01/29 19:55:49;;;;;;;2.60;1.00;;;;;;;;;;6051570;23;20224;-62
2021/01/29 20:05:02;;;;;;;0.00;0.00;;;;;;;;;;6050503;23;20316;-58
2021/01/29 20:19:39;;;;;;;0.00;0.00;;;;;;;;;;6051312;23;20226;-62
2021/01/29 21:09:49;;;;;;;0.00;0.00;;;;;;;;;;6116035;23;20221;-62
2021/01/29 21:54:08;;;;;;;0.00;0.00;;;;;;;;;;5990180;23;20169;-60
2021/01/29 22:05:37;;;;;;;0.00;0.00;;;;;;;;;;6054798;23;20165;-60
2021/01/29 22:20:33;;;;;;;0.00;0.00;;;;;;;;;;6055046;23;20581;-62
2021/01/29 22:40:45;;;;;;;0.00;0.00;;;;;;;;;;5996571;23;20156;-60
2021/01/29 22:55:51;;;;;;;0.00;0.00;;;;;;;;;;5968959;23;20616;-62
2021/01/29 23:01:13;;;;;;;;;;;;;;;;;;;;;
2021/01/29 23:21:46;;;;;;;0.00;0.00;;;;;;;;;;5993811;23;20238;-62
2021/01/29 23:24:45;;;;;;;0.00;0.00;;;;;;;;;;5991491;23;20175;-59
2021/01/29 23:28:06;;;;;;;0.00;0.00;;;;;;;;;;6110327;23;20176;-61
2021/01/29 23:33:54;;;;;;;0.00;0.00;;;;;;;;;;6053364;23;20165;-60
2021/01/29 23:42:35;;;;;;;0.00;0.00;;;;;;;;;;5954663;24;20239;-61
